createdAt,value
2023-03-26T00:01:07.577Z,5.02
2023-03-26T00:04:12.961Z,5.04
2023-03-26T00:07:17.566Z,5.21
2023-03-26T00:10:22.170Z,5.24
2023-03-26T00:13:27.105Z,5.19
2023-03-26T00:16:32.635Z,5.27
2023-03-26T00:19:37.997Z,5.18
2023-03-26T00:22:42.566Z,5.37
2023-03-26T00:25:50.868Z,5.28
2023-03-26T00:28:55.661Z,5.37
2023-03-26T00:32:00.219Z,5.37
2023-03-26T00:35:05.523Z,5.32
2023-03-26T00:38:10.662Z,5.37
2023-03-26T00:41:22.584Z,5.50
2023-03-26T00:44:27.185Z,5.27
2023-03-26T00:47:32.037Z,5.32
2023-03-26T00:50:36.606Z,5.31
2023-03-26T00:53:42.351Z,5.46
2023-03-26T00:56:47.207Z,5.53
2023-03-26T00:59:51.783Z,5.29
2023-03-26T01:02:59.292Z,5.40
2023-03-26T01:06:11.592Z,5.30
2023-03-26T01:09:19.005Z,5.40
2023-03-26T01:12:27.450Z,5.45
2023-03-26T01:15:32.289Z,5.59
2023-03-26T01:18:41.168Z,5.42
2023-03-26T01:21:47.248Z,5.39
2023-03-26T01:24:54.040Z,5.12
2023-03-26T01:27:58.868Z,5.35
2023-03-26T01:31:17.223Z,5.22
2023-03-26T01:34:30.637Z,5.19
2023-03-26T01:37:58.610Z,5.05
2023-03-26T01:41:19.653Z,5.30
2023-03-26T01:44:29.916Z,5.38
2023-03-26T01:47:37.448Z,5.19
2023-03-26T01:50:42.071Z,5.32
2023-03-26T01:53:48.285Z,5.03
2023-03-26T01:57:11.751Z,5.28
2023-03-26T02:00:24.958Z,5.46
2023-03-26T02:03:38.972Z,5.28
2023-03-26T02:06:49.845Z,5.50
2023-03-26T02:10:02.315Z,5.68
2023-03-26T02:13:06.978Z,5.17
2023-03-26T02:16:16.619Z,5.01
2023-03-26T02:19:24.577Z,5.15
2023-03-26T02:22:29.911Z,5.36
2023-03-26T02:25:39.694Z,5.45
2023-03-26T02:28:44.626Z,5.35
2023-03-26T02:31:49.327Z,5.04
2023-03-26T02:34:53.836Z,5.37
2023-03-26T02:37:58.960Z,5.31
2023-03-26T02:41:04.489Z,5.20
2023-03-26T02:44:23.631Z,5.29
2023-03-26T02:47:37.434Z,5.04
2023-03-26T02:51:18.207Z,5.24
2023-03-26T02:54:41.237Z,5.09
2023-03-26T02:57:55.289Z,5.24
2023-03-26T03:01:06.515Z,5.12
2023-03-26T03:04:19.267Z,4.85
2023-03-26T03:07:25.495Z,5.08
2023-03-26T03:10:32.793Z,5.08
2023-03-26T03:13:43.958Z,5.04
2023-03-26T03:16:49.343Z,5.08
2023-03-26T03:19:54.065Z,5.22
2023-03-26T03:22:58.829Z,5.12
2023-03-26T03:26:03.685Z,5.34
2023-03-26T03:29:10.285Z,4.97
2023-03-26T03:32:14.885Z,5.01
2023-03-26T03:35:25.288Z,4.90
2023-03-26T03:38:33.927Z,5.28
2023-03-26T03:41:38.498Z,5.27
2023-03-26T03:44:48.658Z,5.08
2023-03-26T03:48:22.358Z,5.13
2023-03-26T03:51:27.074Z,5.20
2023-03-26T03:54:36.694Z,4.99
2023-03-26T03:57:46.860Z,5.16
2023-03-26T04:01:00.807Z,5.12
2023-03-26T04:04:27.446Z,5.03
2023-03-26T04:07:38.229Z,4.84
2023-03-26T04:10:43.956Z,4.93
2023-03-26T04:13:54.138Z,4.97
2023-03-26T04:17:21.787Z,4.88
2023-03-26T04:20:27.435Z,4.85
2023-03-26T04:23:32.265Z,4.75
2023-03-26T04:26:43.652Z,4.93
2023-03-26T04:29:52.977Z,4.63
2023-03-26T04:33:06.476Z,4.91
2023-03-26T04:36:16.713Z,4.90
2023-03-26T04:39:23.787Z,4.79
2023-03-26T04:43:03.927Z,4.44
2023-03-26T04:46:37.955Z,4.63
2023-03-26T04:49:51.846Z,4.55
2023-03-26T04:52:58.173Z,4.19
2023-03-26T04:56:43.399Z,4.65
2023-03-26T05:00:14.876Z,4.45
2023-03-26T05:03:20.953Z,4.56
2023-03-26T05:06:28.792Z,4.42
2023-03-26T05:09:33.586Z,4.30
2023-03-26T05:12:54.454Z,4.33
2023-03-26T05:16:03.557Z,4.62
2023-03-26T05:19:15.030Z,4.59
2023-03-26T05:22:19.585Z,4.49
2023-03-26T05:25:52.008Z,4.69
2023-03-26T05:29:03.635Z,4.46
2023-03-26T05:32:13.897Z,4.55
2023-03-26T05:35:19.470Z,4.61
2023-03-26T05:38:24.372Z,4.60
2023-03-26T05:41:28.993Z,4.53
2023-03-26T05:44:33.602Z,4.61
2023-03-26T05:47:41.926Z,4.81
2023-03-26T05:50:48.611Z,4.70
2023-03-26T05:53:53.343Z,4.72
2023-03-26T05:56:58.012Z,4.79
2023-03-26T06:00:21.450Z,4.86
2023-03-26T06:03:30.736Z,4.87
2023-03-26T06:06:48.634Z,5.04
2023-03-26T06:09:53.688Z,5.22
2023-03-26T06:12:58.750Z,5.04
2023-03-26T06:16:03.366Z,5.13
2023-03-26T06:19:11.128Z,5.10
2023-03-26T06:22:27.814Z,5.40
2023-03-26T06:26:04.539Z,5.54
2023-03-26T06:29:24.977Z,5.60
2023-03-26T06:32:35.302Z,5.95
2023-03-26T06:35:47.008Z,6.25
2023-03-26T06:38:53.539Z,6.64
2023-03-26T06:41:58.072Z,7.20
2023-03-26T06:45:34.745Z,7.29
2023-03-26T06:48:58.017Z,7.33
2023-03-26T06:52:08.345Z,6.78
2023-03-26T06:55:28.979Z,7.42
2023-03-26T06:58:49.247Z,6.98
2023-03-26T07:02:19.722Z,7.05
2023-03-26T07:05:42.851Z,7.18
2023-03-26T07:09:07.464Z,7.35
2023-03-26T07:12:30.609Z,7.40
2023-03-26T07:16:01.140Z,7.67
2023-03-26T07:19:35.871Z,7.60
2023-03-26T07:22:41.172Z,7.86
2023-03-26T07:25:55.549Z,8.11
2023-03-26T07:30:05.325Z,8.07
2023-03-26T07:33:37.853Z,7.81
2023-03-26T07:37:23.385Z,8.14
2023-03-26T07:41:15.880Z,8.36
2023-03-26T07:45:03.329Z,8.74
2023-03-26T07:48:40.738Z,8.78
2023-03-26T07:51:49.728Z,8.94
2023-03-26T07:55:15.888Z,9.12
2023-03-26T07:58:52.252Z,8.81
2023-03-26T08:02:31.836Z,8.99
2023-03-26T08:06:00.726Z,9.01
2023-03-26T08:09:21.549Z,9.39
2023-03-26T08:13:06.916Z,9.29
2023-03-26T08:16:15.588Z,9.29
2023-03-26T08:19:40.688Z,9.45
2023-03-26T08:22:51.595Z,9.23
2023-03-26T08:26:17.411Z,9.60
2023-03-26T08:29:45.067Z,9.70
2023-03-26T08:32:56.141Z,9.48
2023-03-26T08:36:00.860Z,9.75
2023-03-26T08:39:06.371Z,9.82
2023-03-26T08:42:20.349Z,10.33
2023-03-26T08:46:02.279Z,9.49
2023-03-26T08:49:26.721Z,9.39
2023-03-26T08:52:41.303Z,9.31
2023-03-26T08:55:53.774Z,9.32
2023-03-26T08:59:04.501Z,9.20
2023-03-26T09:02:26.667Z,8.67
2023-03-26T09:05:41.037Z,9.12
2023-03-26T09:08:58.147Z,9.19
2023-03-26T09:12:25.484Z,9.29
2023-03-26T09:15:53.707Z,8.89
2023-03-26T09:18:59.078Z,8.69
2023-03-26T09:22:31.559Z,9.25
2023-03-26T09:26:11.786Z,9.28
2023-03-26T09:29:32.972Z,9.33
2023-03-26T09:33:11.713Z,9.00
2023-03-26T09:36:40.845Z,9.00
2023-03-26T09:40:06.921Z,9.02
2023-03-26T09:43:42.136Z,8.78
2023-03-26T09:47:07.404Z,9.00
2023-03-26T09:50:42.816Z,9.64
2023-03-26T09:54:20.547Z,9.29
2023-03-26T09:57:58.074Z,9.88
2023-03-26T10:01:29.487Z,9.97
2023-03-26T10:04:45.912Z,9.65
2023-03-26T10:08:32.185Z,9.76
2023-03-26T10:11:54.630Z,9.91
2023-03-26T10:15:20.662Z,9.57
2023-03-26T10:18:45.391Z,9.40
2023-03-26T10:22:12.575Z,9.71
2023-03-26T10:25:46.833Z,9.07
2023-03-26T10:29:09.606Z,9.98
2023-03-26T10:32:37.855Z,10.06
2023-03-26T10:35:52.395Z,10.05
2023-03-26T10:39:47.635Z,9.90
2023-03-26T10:43:29.240Z,9.86
2023-03-26T10:46:58.468Z,9.93
2023-03-26T10:50:22.989Z,9.59
2023-03-26T10:53:28.892Z,9.91
2023-03-26T10:56:43.963Z,8.98
2023-03-26T10:59:48.671Z,9.27
2023-03-26T11:03:24.740Z,9.51
2023-03-26T11:06:35.556Z,9.35
2023-03-26T11:09:46.231Z,9.11
2023-03-26T11:13:23.067Z,8.90
2023-03-26T11:17:05.082Z,8.81
2023-03-26T11:20:38.591Z,8.29
2023-03-26T11:24:23.533Z,8.76
2023-03-26T11:27:45.702Z,8.06
2023-03-26T11:31:19.727Z,7.44
2023-03-26T11:34:31.234Z,7.14
2023-03-26T11:37:42.379Z,7.30
2023-03-26T11:40:52.250Z,7.28
2023-03-26T11:44:26.205Z,6.83
2023-03-26T11:47:44.525Z,6.80
2023-03-26T11:50:53.574Z,7.06
2023-03-26T11:53:59.163Z,7.11
2023-03-26T11:57:08.464Z,7.20
2023-03-26T12:00:21.082Z,7.22
2023-03-26T12:03:26.093Z,7.45
2023-03-26T12:06:32.956Z,7.60
2023-03-26T12:09:37.490Z,7.71
2023-03-26T12:12:45.895Z,8.17
2023-03-26T12:15:50.587Z,8.22
2023-03-26T12:19:05.423Z,8.78
2023-03-26T12:22:33.257Z,8.72
2023-03-26T12:25:38.954Z,8.58
2023-03-26T12:28:46.580Z,8.53
2023-03-26T12:31:56.956Z,8.36
2023-03-26T12:35:07.418Z,8.40
2023-03-26T12:38:27.619Z,8.58
2023-03-26T12:44:43.051Z,8.67
2023-03-26T12:45:06.785Z,9.03
2023-03-26T12:48:15.827Z,9.30
2023-03-26T12:51:34.001Z,8.84
2023-03-26T12:54:50.759Z,8.92
2023-03-26T12:58:18.597Z,8.84
2023-03-26T13:01:36.032Z,8.55
2023-03-26T13:05:05.102Z,9.58
2023-03-26T13:08:33.720Z,10.64
2023-03-26T13:11:58.328Z,9.72
2023-03-26T13:15:25.475Z,9.56
2023-03-26T13:19:07.428Z,10.83
2023-03-26T13:22:37.745Z,8.67
2023-03-26T13:26:06.062Z,9.06
2023-03-26T13:29:29.846Z,8.42
2023-03-26T13:32:59.044Z,7.59
2023-03-26T13:36:24.069Z,7.66
2023-03-26T13:39:50.990Z,7.81
2023-03-26T13:43:16.829Z,8.05
2023-03-26T13:46:36.678Z,7.62
2023-03-26T13:49:46.688Z,8.20
2023-03-26T13:53:12.174Z,8.17
2023-03-26T13:56:21.766Z,8.08
2023-03-26T13:59:39.825Z,8.23
2023-03-26T14:02:49.306Z,8.17
2023-03-26T14:05:57.367Z,8.23
2023-03-26T14:09:12.699Z,9.00
2023-03-26T14:12:22.880Z,8.60
2023-03-26T14:15:56.783Z,8.29
2023-03-26T14:19:04.731Z,8.19
2023-03-26T14:22:26.869Z,8.69
2023-03-26T14:25:49.741Z,8.49
2023-03-26T14:29:21.803Z,8.50
2023-03-26T14:32:45.910Z,8.82
2023-03-26T14:36:07.102Z,8.54
2023-03-26T14:39:38.583Z,8.95
2023-03-26T14:43:01.525Z,8.77
2023-03-26T14:46:55.580Z,7.53
2023-03-26T14:50:27.664Z,8.03
2023-03-26T14:53:56.189Z,7.96
2023-03-26T14:57:38.176Z,7.60
2023-03-26T15:01:04.001Z,7.42
2023-03-26T15:04:24.374Z,7.63
2023-03-26T15:08:00.822Z,7.33
2023-03-26T15:11:14.634Z,8.03
2023-03-26T15:14:56.657Z,7.69
2023-03-26T15:18:26.156Z,7.80
2023-03-26T15:21:53.562Z,7.81
2023-03-26T15:25:19.936Z,7.62
2023-03-26T15:28:24.548Z,7.88
2023-03-26T15:31:59.801Z,8.02
2023-03-26T15:35:52.764Z,8.10
2023-03-26T15:39:38.188Z,7.77
2023-03-26T15:42:51.698Z,8.37
2023-03-26T15:46:11.377Z,8.32
2023-03-26T15:49:44.654Z,7.73
2023-03-26T15:52:59.766Z,7.78
2023-03-26T15:56:19.414Z,8.06
2023-03-26T15:59:48.223Z,7.82
2023-03-26T16:03:10.960Z,7.90
2023-03-26T16:06:41.255Z,7.77
2023-03-26T16:09:55.077Z,8.17
2023-03-26T16:13:20.052Z,7.60
2023-03-26T16:16:45.217Z,7.47
2023-03-26T16:20:23.259Z,7.47
2023-03-26T16:23:34.295Z,7.44
2023-03-26T16:26:55.529Z,7.24
2023-03-26T16:30:00.115Z,7.19
2023-03-26T16:33:35.900Z,7.15
2023-03-26T16:36:45.097Z,7.19
2023-03-26T16:39:49.994Z,6.91
2023-03-26T16:43:24.317Z,6.84
2023-03-26T16:46:32.944Z,6.74
2023-03-26T16:50:08.590Z,6.46
2023-03-26T16:53:52.090Z,6.57
2023-03-26T16:57:19.066Z,6.68
2023-03-26T17:00:29.998Z,6.68
2023-03-26T17:03:46.802Z,6.65
2023-03-26T17:07:08.951Z,6.56
2023-03-26T17:10:32.567Z,6.53
2023-03-26T17:13:52.855Z,6.41
2023-03-26T17:17:03.735Z,6.75
2023-03-26T17:20:40.914Z,6.69
2023-03-26T17:24:01.080Z,6.59
2023-03-26T17:27:21.567Z,6.68
2023-03-26T17:30:53.630Z,6.61
2023-03-26T17:34:34.134Z,6.43
2023-03-26T17:37:45.628Z,6.32
2023-03-26T17:40:51.798Z,6.34
2023-03-26T17:43:57.279Z,6.39
2023-03-26T17:47:06.873Z,5.93
2023-03-26T17:50:20.259Z,6.01
2023-03-26T17:53:30.970Z,6.33
2023-03-26T17:56:37.773Z,6.10
2023-03-26T17:59:45.037Z,6.30
2023-03-26T18:02:57.492Z,6.15
2023-03-26T18:06:09.320Z,6.32
2023-03-26T18:09:50.941Z,6.46
2023-03-26T18:13:36.198Z,6.39
2023-03-26T18:16:59.977Z,6.14
2023-03-26T18:20:10.087Z,6.49
2023-03-26T18:23:35.955Z,7.00
2023-03-26T18:27:05.126Z,6.82
2023-03-26T18:30:22.956Z,6.98
2023-03-26T18:33:27.905Z,6.76
2023-03-26T18:36:38.612Z,6.38
2023-03-26T18:40:19.404Z,6.27
2023-03-26T18:43:34.496Z,6.04
2023-03-26T18:46:41.721Z,5.78
2023-03-26T18:49:53.981Z,5.88
2023-03-26T18:53:00.480Z,5.89
2023-03-26T18:56:28.905Z,6.01
2023-03-26T18:59:38.135Z,5.52
2023-03-26T19:03:22.331Z,6.28
2023-03-26T19:06:28.418Z,6.06
2023-03-26T19:09:36.543Z,6.39
2023-03-26T19:12:42.796Z,5.75
2023-03-26T19:15:53.812Z,5.92
2023-03-26T19:19:04.839Z,5.91
2023-03-26T19:22:11.510Z,5.66
2023-03-26T19:25:25.809Z,5.50
2023-03-26T19:28:39.464Z,5.44
2023-03-26T19:31:50.396Z,5.64
2023-03-26T19:34:58.976Z,5.67
2023-03-26T19:38:18.577Z,5.76
2023-03-26T19:41:25.244Z,5.55
2023-03-26T19:44:30.479Z,5.61
2023-03-26T19:51:18.447Z,5.86
2023-03-26T19:51:25.937Z,6.05
2023-03-26T19:54:31.145Z,6.28
2023-03-26T19:57:37.837Z,6.21
2023-03-26T20:00:42.969Z,6.10
2023-03-26T20:03:50.275Z,6.06
2023-03-26T20:06:55.093Z,5.89
2023-03-26T20:10:01.116Z,5.92
2023-03-26T20:13:14.916Z,5.82
2023-03-26T20:16:31.890Z,5.60
2023-03-26T20:19:36.903Z,5.62
2023-03-26T20:22:43.945Z,5.68
2023-03-26T20:25:51.892Z,5.85
2023-03-26T20:29:03.497Z,5.89
2023-03-26T20:32:27.589Z,5.59
2023-03-26T20:35:35.670Z,5.74
2023-03-26T20:38:42.826Z,5.91
2023-03-26T20:41:49.966Z,5.93
2023-03-26T20:44:57.401Z,6.08
2023-03-26T20:48:07.061Z,5.99
2023-03-26T20:51:14.609Z,6.08
2023-03-26T20:54:25.997Z,6.02
2023-03-26T20:57:33.327Z,5.85
2023-03-26T21:00:38.426Z,5.95
2023-03-26T21:04:12.958Z,5.87
2023-03-26T21:07:19.855Z,5.66
2023-03-26T21:10:26.482Z,5.37
2023-03-26T21:13:31.062Z,5.46
2023-03-26T21:16:36.378Z,5.51
2023-03-26T21:19:47.873Z,5.48
2023-03-26T21:23:27.134Z,5.61
2023-03-26T21:27:03.054Z,5.52
2023-03-26T21:30:14.499Z,5.41
2023-03-26T21:33:19.923Z,5.42
2023-03-26T21:36:25.142Z,5.40
2023-03-26T21:39:30.218Z,5.15
2023-03-26T21:42:35.256Z,5.02
2023-03-26T21:45:40.635Z,4.99
2023-03-26T21:48:47.945Z,5.10
2023-03-26T21:52:01.905Z,4.54
2023-03-26T21:55:08.080Z,4.72
2023-03-26T21:58:26.904Z,4.54
2023-03-26T22:01:52.805Z,4.22
2023-03-26T22:05:04.127Z,3.98
2023-03-26T22:08:21.563Z,3.48
2023-03-26T22:11:26.219Z,3.73
2023-03-26T22:14:30.836Z,3.54
2023-03-26T22:17:35.728Z,3.39
2023-03-26T22:20:42.653Z,3.52
2023-03-26T22:23:52.683Z,3.48
2023-03-26T22:26:57.314Z,3.23
2023-03-26T22:30:01.832Z,3.26
2023-03-26T22:33:11.075Z,3.39
2023-03-26T22:36:23.400Z,3.24
2023-03-26T22:39:28.966Z,3.40
2023-03-26T22:42:33.632Z,3.43
2023-03-26T22:45:38.188Z,3.35
2023-03-26T22:48:45.966Z,3.47
2023-03-26T22:51:50.959Z,3.60
2023-03-26T22:54:55.820Z,3.87
2023-03-26T22:58:00.380Z,3.61
2023-03-26T23:01:10.829Z,3.58
2023-03-26T23:04:30.392Z,3.37
2023-03-26T23:07:35.644Z,3.31
2023-03-26T23:10:42.435Z,3.35
2023-03-26T23:13:47.831Z,3.47
2023-03-26T23:16:52.457Z,3.42
2023-03-26T23:19:57.012Z,3.12
2023-03-26T23:23:02.111Z,3.44
2023-03-26T23:26:06.869Z,3.58
2023-03-26T23:29:11.520Z,3.53
2023-03-26T23:32:24.539Z,3.52
2023-03-26T23:35:29.623Z,3.66
2023-03-26T23:38:44.029Z,3.58
2023-03-26T23:41:49.153Z,3.44
2023-03-26T23:44:56.433Z,3.48
2023-03-26T23:48:03.711Z,3.69
2023-03-26T23:51:09.726Z,3.64
2023-03-26T23:54:15.337Z,3.53
2023-03-26T23:57:19.796Z,3.64
